sensor_id;sensor_type;location;lat;lon;timestamp;pressure;altitude;pressure_sealevel;temperature;humidity
20037;BME280;10179;42.640;23.312;2023-12-14T00:01:37;92703.63;;;10.79;51.59
20037;BME280;10179;42.640;23.312;2023-12-14T00:04:04;92650.78;;;10.43;51.85
20037;BME280;10179;42.640;23.312;2023-12-14T00:06:30;92698.28;;;10.68;51.93
20037;BME280;10179;42.640;23.312;2023-12-14T00:08:55;92706.91;;;10.64;52.03
20037;BME280;10179;42.640;23.312;2023-12-14T00:11:21;92675.09;;;10.60;52.34
20037;BME280;10179;42.640;23.312;2023-12-14T00:13:46;92611.97;;;9.96;52.44
20037;BME280;10179;42.640;23.312;2023-12-14T00:16:11;92707.59;;;10.54;52.67
20037;BME280;10179;42.640;23.312;2023-12-14T00:18:37;92680.63;;;10.37;52.51
20037;BME280;10179;42.640;23.312;2023-12-14T00:21:03;92717.09;;;10.60;52.71
20037;BME280;10179;42.640;23.312;2023-12-14T00:23:28;92682.78;;;10.40;52.49
20037;BME280;10179;42.640;23.312;2023-12-14T00:25:54;92777.03;;;10.68;52.39
20037;BME280;10179;42.640;23.312;2023-12-14T00:28:19;92154.19;;;7.04;52.14
20037;BME280;10179;42.640;23.312;2023-12-14T00:30:45;92669.53;;;10.30;52.47
20037;BME280;10179;42.640;23.312;2023-12-14T00:33:10;92680.63;;;10.37;52.74
20037;BME280;10179;42.640;23.312;2023-12-14T00:35:35;92684.06;;;10.37;52.93
20037;BME280;10179;42.640;23.312;2023-12-14T00:38:01;92710.69;;;10.51;53.24
20037;BME280;10179;42.640;23.312;2023-12-14T00:40:26;92692.66;;;10.60;53.21
20037;BME280;10179;42.640;23.312;2023-12-14T00:42:52;92709.25;;;10.65;53.00
20037;BME280;10179;42.640;23.312;2023-12-14T00:45:17;92705.59;;;10.66;52.87
20037;BME280;10179;42.640;23.312;2023-12-14T00:47:42;92710.06;;;10.66;52.88
20037;BME280;10179;42.640;23.312;2023-12-14T00:50:08;92560.91;;;9.76;53.00
20037;BME280;10179;42.640;23.312;2023-12-14T00:52:34;92578.16;;;9.99;52.60
20037;BME280;10179;42.640;23.312;2023-12-14T00:54:59;92681.44;;;10.64;52.37
20037;BME280;10179;42.640;23.312;2023-12-14T00:57:25;92671.81;;;10.48;52.28
20037;BME280;10179;42.640;23.312;2023-12-14T00:59:50;92680.13;;;10.67;52.48
20037;BME280;10179;42.640;23.312;2023-12-14T01:02:15;92610.19;;;10.01;52.60
20037;BME280;10179;42.640;23.312;2023-12-14T01:04:41;92642.31;;;10.36;52.55
20037;BME280;10179;42.640;23.312;2023-12-14T01:07:07;92672.31;;;10.45;52.47
20037;BME280;10179;42.640;23.312;2023-12-14T01:09:33;92665.47;;;10.44;52.77
20037;BME280;10179;42.640;23.312;2023-12-14T01:11:58;92698.16;;;10.58;52.93
20037;BME280;10179;42.640;23.312;2023-12-14T01:14:23;92661.22;;;10.38;52.87
20037;BME280;10179;42.640;23.312;2023-12-14T01:16:49;92674.09;;;10.39;52.73
20037;BME280;10179;42.640;23.312;2023-12-14T01:19:14;92652.25;;;10.34;52.74
20037;BME280;10179;42.640;23.312;2023-12-14T01:21:39;92556.78;;;9.59;52.86
20037;BME280;10179;42.640;23.312;2023-12-14T01:24:05;92687.97;;;10.62;53.03
20037;BME280;10179;42.640;23.312;2023-12-14T01:26:30;92684.75;;;10.55;52.84
20037;BME280;10179;42.640;23.312;2023-12-14T01:28:56;92616.03;;;10.09;52.76
20037;BME280;10179;42.640;23.312;2023-12-14T01:31:21;92696.88;;;10.61;53.01
20037;BME280;10179;42.640;23.312;2023-12-14T01:33:50;92718.38;;;10.58;53.00
20037;BME280;10179;42.640;23.312;2023-12-14T01:36:22;92696.69;;;10.67;52.85
20037;BME280;10179;42.640;23.312;2023-12-14T01:38:48;92698.16;;;10.58;52.71
20037;BME280;10179;42.640;23.312;2023-12-14T01:41:14;92678.94;;;10.52;52.73
20037;BME280;10179;42.640;23.312;2023-12-14T01:43:39;92690.03;;;10.60;52.78
20037;BME280;10179;42.640;23.312;2023-12-14T01:46:05;92590.50;;;9.99;52.86
20037;BME280;10179;42.640;23.312;2023-12-14T01:48:30;92556.25;;;9.84;52.84
20037;BME280;10179;42.640;23.312;2023-12-14T01:50:55;92692.63;;;10.82;52.51
20037;BME280;10179;42.640;23.312;2023-12-14T01:53:21;92592.41;;;9.82;52.36
20037;BME280;10179;42.640;23.312;2023-12-14T01:55:47;92700.28;;;10.88;52.36
20037;BME280;10179;42.640;23.312;2023-12-14T01:58:13;92706.06;;;10.90;52.24
20037;BME280;10179;42.640;23.312;2023-12-14T02:03:25;92521.41;;;9.88;52.27
20037;BME280;10179;42.640;23.312;2023-12-14T02:05:50;92686.41;;;10.93;52.40
20037;BME280;10179;42.640;23.312;2023-12-14T02:08:15;92338.00;;;8.80;52.26
20037;BME280;10179;42.640;23.312;2023-12-14T02:10:41;92686.28;;;11.10;52.10
20037;BME280;10179;42.640;23.312;2023-12-14T02:13:06;92678.72;;;11.18;51.87
20037;BME280;10179;42.640;23.312;2023-12-14T02:15:32;92664.84;;;11.28;51.70
20037;BME280;10179;42.640;23.312;2023-12-14T02:17:58;92674.09;;;11.36;51.41
20037;BME280;10179;42.640;23.312;2023-12-14T02:20:23;92626.72;;;11.26;50.88
20037;BME280;10179;42.640;23.312;2023-12-14T02:22:55;92673.31;;;11.40;50.65
20037;BME280;10179;42.640;23.312;2023-12-14T02:25:22;92565.19;;;10.74;50.78
20037;BME280;10179;42.640;23.312;2023-12-14T02:27:48;92582.81;;;10.79;50.87
20037;BME280;10179;42.640;23.312;2023-12-14T02:30:15;92610.81;;;11.05;50.76
20037;BME280;10179;42.640;23.312;2023-12-14T02:32:40;92672.03;;;11.43;50.96
20037;BME280;10179;42.640;23.312;2023-12-14T02:35:07;92659.72;;;11.49;50.62
20037;BME280;10179;42.640;23.312;2023-12-14T02:37:33;92480.13;;;10.33;50.36
20037;BME280;10179;42.640;23.312;2023-12-14T02:39:59;92645.19;;;11.36;50.64
20037;BME280;10179;42.640;23.312;2023-12-14T02:42:26;92676.34;;;11.59;50.66
20037;BME280;10179;42.640;23.312;2023-12-14T02:44:53;92672.94;;;11.64;50.37
20037;BME280;10179;42.640;23.312;2023-12-14T02:47:19;92686.88;;;11.64;49.93
20037;BME280;10179;42.640;23.312;2023-12-14T02:49:44;92642.03;;;11.39;50.08
20037;BME280;10179;42.640;23.312;2023-12-14T02:52:10;92693.91;;;11.54;50.23
20037;BME280;10179;42.640;23.312;2023-12-14T02:54:38;92563.28;;;10.64;50.23
20037;BME280;10179;42.640;23.312;2023-12-14T02:57:04;92600.22;;;10.90;50.57
20037;BME280;10179;42.640;23.312;2023-12-14T02:59:29;92684.75;;;11.56;50.79
20037;BME280;10179;42.640;23.312;2023-12-14T03:01:55;92702.16;;;11.67;50.44
20037;BME280;10179;42.640;23.312;2023-12-14T03:04:20;92693.22;;;11.68;50.32
20037;BME280;10179;42.640;23.312;2023-12-14T03:06:45;92686.88;;;11.59;50.18
20037;BME280;10179;42.640;23.312;2023-12-14T03:09:11;92679.03;;;11.69;50.03
20037;BME280;10179;42.640;23.312;2023-12-14T03:11:36;92287.81;;;9.15;50.32
20037;BME280;10179;42.640;23.312;2023-12-14T03:14:02;92613.00;;;11.18;49.87
20037;BME280;10179;42.640;23.312;2023-12-14T03:16:27;92540.41;;;11.02;nan
20037;BME280;10179;42.640;23.312;2023-12-14T03:18:52;92612.34;;;11.38;49.97
20037;BME280;10179;42.640;23.312;2023-12-14T03:21:19;92614.75;;;11.45;50.07
20037;BME280;10179;42.640;23.312;2023-12-14T03:23:45;92558.84;;;11.12;50.38
20037;BME280;10179;42.640;23.312;2023-12-14T03:26:11;92625.25;;;11.45;50.12
20037;BME280;10179;42.640;23.312;2023-12-14T03:28:36;92644.56;;;11.66;49.98
20037;BME280;10179;42.640;23.312;2023-12-14T03:31:02;92676.88;;;11.61;49.88
20037;BME280;10179;42.640;23.312;2023-12-14T03:33:28;92656.44;;;11.74;50.12
20037;BME280;10179;42.640;23.312;2023-12-14T03:35:54;92650.66;;;11.77;49.90
20037;BME280;10179;42.640;23.312;2023-12-14T03:38:20;92633.78;;;11.67;49.84
20037;BME280;10179;42.640;23.312;2023-12-14T03:40:45;92140.25;;;8.62;49.75
20037;BME280;10179;42.640;23.312;2023-12-14T03:43:10;92617.78;;;11.79;49.77
20037;BME280;10179;42.640;23.312;2023-12-14T03:45:36;92620.41;;;11.79;49.87
20037;BME280;10179;42.640;23.312;2023-12-14T03:48:01;92612.91;;;11.51;49.95
20037;BME280;10179;42.640;23.312;2023-12-14T03:50:27;92568.50;;;11.54;50.00
20037;BME280;10179;42.640;23.312;2023-12-14T03:52:53;92586.47;;;11.83;49.76
20037;BME280;10179;42.640;23.312;2023-12-14T03:55:18;92524.72;;;11.22;49.34
20037;BME280;10179;42.640;23.312;2023-12-14T03:57:44;92266.25;;;9.83;49.13
20037;BME280;10179;42.640;23.312;2023-12-14T04:00:10;92622.88;;;11.96;49.15
20037;BME280;10179;42.640;23.312;2023-12-14T04:02:36;92599.69;;;11.93;48.95
20037;BME280;10179;42.640;23.312;2023-12-14T04:05:01;92607.09;;;12.01;49.04
20037;BME280;10179;42.640;23.312;2023-12-14T04:07:27;92574.84;;;11.58;48.88
20037;BME280;10179;42.640;23.312;2023-12-14T04:09:52;92610.75;;;11.90;48.72
20037;BME280;10179;42.640;23.312;2023-12-14T04:12:17;92555.53;;;11.32;49.05
20037;BME280;10179;42.640;23.312;2023-12-14T04:14:43;92605.94;;;11.82;48.84
20037;BME280;10179;42.640;23.312;2023-12-14T04:17:10;92608.53;;;11.66;48.86
20037;BME280;10179;42.640;23.312;2023-12-14T04:19:38;92300.28;;;9.72;48.82
20037;BME280;10179;42.640;23.312;2023-12-14T04:22:03;92650.75;;;11.92;49.24
20037;BME280;10179;42.640;23.312;2023-12-14T04:24:29;92576.84;;;11.36;49.28
20037;BME280;10179;42.640;23.312;2023-12-14T04:26:55;92624.88;;;11.74;49.56
20037;BME280;10179;42.640;23.312;2023-12-14T04:29:20;92642.56;;;11.88;49.45
20037;BME280;10179;42.640;23.312;2023-12-14T04:31:46;92655.50;;;11.90;49.49
20037;BME280;10179;42.640;23.312;2023-12-14T04:34:11;92515.66;;;10.93;49.39
20037;BME280;10179;42.640;23.312;2023-12-14T04:36:41;92630.78;;;12.01;48.85
20037;BME280;10179;42.640;23.312;2023-12-14T04:39:06;92115.47;;;8.38;49.03
20037;BME280;10179;42.640;23.312;2023-12-14T04:41:31;92644.97;;;11.95;49.23
20037;BME280;10179;42.640;23.312;2023-12-14T04:43:57;92607.50;;;11.73;49.26
20037;BME280;10179;42.640;23.312;2023-12-14T04:46:22;92653.91;;;11.94;49.49
20037;BME280;10179;42.640;23.312;2023-12-14T04:48:47;92635.00;;;11.97;49.12
20037;BME280;10179;42.640;23.312;2023-12-14T04:51:13;92607.22;;;11.69;49.39
20037;BME280;10179;42.640;23.312;2023-12-14T04:53:39;92579.00;;;11.54;49.27
20037;BME280;10179;42.640;23.312;2023-12-14T04:56:05;92642.31;;;11.85;49.54
20037;BME280;10179;42.640;23.312;2023-12-14T04:58:31;92618.50;;;11.59;49.70
20037;BME280;10179;42.640;23.312;2023-12-14T05:00:56;92600.81;;;11.50;49.56
20037;BME280;10179;42.640;23.312;2023-12-14T05:03:21;92660.47;;;11.86;49.65
20037;BME280;10179;42.640;23.312;2023-12-14T05:05:47;92541.00;;;11.19;49.77
20037;BME280;10179;42.640;23.312;2023-12-14T05:08:12;92648.38;;;11.90;49.21
20037;BME280;10179;42.640;23.312;2023-12-14T05:10:38;92659.16;;;11.89;49.56
20037;BME280;10179;42.640;23.312;2023-12-14T05:13:03;92641.28;;;11.96;49.50
20037;BME280;10179;42.640;23.312;2023-12-14T05:15:28;92630.66;;;11.76;49.31
20037;BME280;10179;42.640;23.312;2023-12-14T05:17:54;92516.84;;;11.22;48.94
20037;BME280;10179;42.640;23.312;2023-12-14T05:20:19;92647.03;;;11.88;49.32
20037;BME280;10179;42.640;23.312;2023-12-14T05:22:45;92618.00;;;11.67;49.71
20037;BME280;10179;42.640;23.312;2023-12-14T05:25:11;92644.88;;;11.80;49.71
20037;BME280;10179;42.640;23.312;2023-12-14T05:27:36;92652.25;;;11.83;49.56
20037;BME280;10179;42.640;23.312;2023-12-14T05:30:02;92613.00;;;11.18;49.59
20037;BME280;10179;42.640;23.312;2023-12-14T05:32:29;92648.53;;;11.79;49.89
20037;BME280;10179;42.640;23.312;2023-12-14T05:34:54;92579.97;;;11.33;49.93
20037;BME280;10179;42.640;23.312;2023-12-14T05:37:19;92653.81;;;11.79;49.85
20037;BME280;10179;42.640;23.312;2023-12-14T05:39:45;92585.22;;;11.33;49.88
20037;BME280;10179;42.640;23.312;2023-12-14T05:42:10;92678.03;;;11.81;49.74
20037;BME280;10179;42.640;23.312;2023-12-14T05:44:36;92667.69;;;11.64;49.94
20037;BME280;10179;42.640;23.312;2023-12-14T05:47:01;92603.13;;;11.36;49.83
20037;BME280;10179;42.640;23.312;2023-12-14T05:49:27;92668.25;;;11.71;50.05
20037;BME280;10179;42.640;23.312;2023-12-14T05:51:53;92618.53;;;11.22;50.26
20037;BME280;10179;42.640;23.312;2023-12-14T05:54:18;92628.44;;;11.52;49.88
20037;BME280;10179;42.640;23.312;2023-12-14T05:56:44;92647.25;;;11.81;49.88
20037;BME280;10179;42.640;23.312;2023-12-14T05:59:09;92567.34;;;11.30;49.67
20037;BME280;10179;42.640;23.312;2023-12-14T06:01:34;92679.84;;;11.75;50.13
20037;BME280;10179;42.640;23.312;2023-12-14T06:04:00;92638.69;;;11.54;50.20
20037;BME280;10179;42.640;23.312;2023-12-14T06:06:25;92681.19;;;11.83;49.87
20037;BME280;10179;42.640;23.312;2023-12-14T06:08:51;92606.81;;;11.35;49.77
20037;BME280;10179;42.640;23.312;2023-12-14T06:11:16;92665.38;;;11.73;49.67
20037;BME280;10179;42.640;23.312;2023-12-14T06:13:42;92668.59;;;11.85;49.83
20037;BME280;10179;42.640;23.312;2023-12-14T06:16:07;92606.25;;;11.33;49.98
20037;BME280;10179;42.640;23.312;2023-12-14T06:18:37;92684.16;;;11.91;50.15
20037;BME280;10179;42.640;23.312;2023-12-14T06:21:05;92647.38;;;11.54;49.86
20037;BME280;10179;42.640;23.312;2023-12-14T06:23:30;92678.38;;;11.94;49.74
20037;BME280;10179;42.640;23.312;2023-12-14T06:25:55;92704.69;;;11.94;49.58
20037;BME280;10179;42.640;23.312;2023-12-14T06:28:21;92680.97;;;11.89;49.49
20037;BME280;10179;42.640;23.312;2023-12-14T06:30:46;92689.97;;;11.99;49.56
20037;BME280;10179;42.640;23.312;2023-12-14T06:33:12;92719.75;;;12.04;49.36
20037;BME280;10179;42.640;23.312;2023-12-14T06:35:37;92666.28;;;11.99;49.20
20037;BME280;10179;42.640;23.312;2023-12-14T06:38:02;92707.97;;;12.27;48.84
20037;BME280;10179;42.640;23.312;2023-12-14T06:40:28;92717.75;;;12.42;48.70
20037;BME280;10179;42.640;23.312;2023-12-14T06:42:53;92736.00;;;12.54;48.33
20037;BME280;10179;42.640;23.312;2023-12-14T06:45:18;92643.22;;;12.26;47.88
20037;BME280;10179;42.640;23.312;2023-12-14T06:47:44;92721.53;;;12.77;47.71
20037;BME280;10179;42.640;23.312;2023-12-14T06:50:11;92699.69;;;12.76;47.54
20037;BME280;10179;42.640;23.312;2023-12-14T06:52:38;92707.56;;;12.61;47.01
20037;BME280;10179;42.640;23.312;2023-12-14T06:55:03;92706.56;;;12.98;46.90
20037;BME280;10179;42.640;23.312;2023-12-14T06:57:29;92711.56;;;12.94;46.77
20037;BME280;10179;42.640;23.312;2023-12-14T06:59:55;92713.66;;;13.12;46.64
20037;BME280;10179;42.640;23.312;2023-12-14T07:02:20;92701.31;;;13.03;46.62
20037;BME280;10179;42.640;23.312;2023-12-14T07:04:45;92705.25;;;13.10;46.40
20037;BME280;10179;42.640;23.312;2023-12-14T07:07:11;92736.94;;;13.41;46.20
20037;BME280;10179;42.640;23.312;2023-12-14T07:09:38;92716.88;;;13.45;45.67
20037;BME280;10179;42.640;23.312;2023-12-14T07:12:04;92728.47;;;13.44;45.89
20037;BME280;10179;42.640;23.312;2023-12-14T07:14:29;92724.50;;;13.57;45.42
20037;BME280;10179;42.640;23.312;2023-12-14T07:16:54;92740.84;;;13.74;45.14
20037;BME280;10179;42.640;23.312;2023-12-14T07:19:20;92614.31;;;13.13;44.77
20037;BME280;10179;42.640;23.312;2023-12-14T07:21:45;92761.41;;;13.98;44.61
20037;BME280;10179;42.640;23.312;2023-12-14T07:24:10;92743.16;;;14.06;44.01
20037;BME280;10179;42.640;23.312;2023-12-14T07:26:36;92712.09;;;13.73;44.19
20037;BME280;10179;42.640;23.312;2023-12-14T07:29:01;92746.03;;;14.10;44.30
20037;BME280;10179;42.640;23.312;2023-12-14T07:31:27;92741.59;;;13.95;44.17
20037;BME280;10179;42.640;23.312;2023-12-14T07:33:54;92752.66;;;14.13;44.26
20037;BME280;10179;42.640;23.312;2023-12-14T07:36:20;92687.28;;;13.74;44.07
20037;BME280;10179;42.640;23.312;2023-12-14T07:38:47;92764.75;;;14.24;44.22
20037;BME280;10179;42.640;23.312;2023-12-14T07:41:13;92700.41;;;13.99;44.04
20037;BME280;10179;42.640;23.312;2023-12-14T07:43:38;92427.91;;;12.13;43.94
20037;BME280;10179;42.640;23.312;2023-12-14T07:46:03;92739.13;;;14.24;44.04
20037;BME280;10179;42.640;23.312;2023-12-14T07:48:29;92777.91;;;14.44;44.06
20037;BME280;10179;42.640;23.312;2023-12-14T07:50:54;92759.94;;;14.51;43.82
20037;BME280;10179;42.640;23.312;2023-12-14T07:53:20;92589.75;;;13.48;43.60
20037;BME280;10179;42.640;23.312;2023-12-14T07:55:46;92769.19;;;14.54;43.68
20037;BME280;10179;42.640;23.312;2023-12-14T07:58:11;92770.47;;;14.62;43.67
20037;BME280;10179;42.640;23.312;2023-12-14T08:00:38;92723.25;;;14.35;43.51
20037;BME280;10179;42.640;23.312;2023-12-14T08:03:03;92690.59;;;14.15;43.36
20037;BME280;10179;42.640;23.312;2023-12-14T08:05:28;92771.94;;;14.83;43.20
20037;BME280;10179;42.640;23.312;2023-12-14T08:07:55;92795.22;;;14.81;43.30
20037;BME280;10179;42.640;23.312;2023-12-14T08:10:20;92761.75;;;15.11;42.95
20037;BME280;10179;42.640;23.312;2023-12-14T08:12:45;92766.97;;;15.21;42.73
20037;BME280;10179;42.640;23.312;2023-12-14T08:15:12;92769.56;;;15.31;42.92
20037;BME280;10179;42.640;23.312;2023-12-14T08:17:38;92756.41;;;15.55;42.48
20037;BME280;10179;42.640;23.312;2023-12-14T08:20:04;92465.03;;;13.87;42.43
20037;BME280;10179;42.640;23.312;2023-12-14T08:22:34;92724.38;;;15.57;41.36
20037;BME280;10179;42.640;23.312;2023-12-14T08:24:59;92627.56;;;14.92;40.93
20037;BME280;10179;42.640;23.312;2023-12-14T08:27:24;92779.81;;;15.77;41.08
20037;BME280;10179;42.640;23.312;2023-12-14T08:29:50;92762.19;;;15.62;41.21
20037;BME280;10179;42.640;23.312;2023-12-14T08:32:15;92643.97;;;14.89;41.09
20037;BME280;10179;42.640;23.312;2023-12-14T08:34:40;92551.50;;;14.05;41.17
20037;BME280;10179;42.640;23.312;2023-12-14T08:37:06;92691.56;;;14.89;41.35
20037;BME280;10179;42.640;23.312;2023-12-14T08:39:31;92638.88;;;14.59;41.32
20037;BME280;10179;42.640;23.312;2023-12-14T08:41:57;92788.00;;;15.41;41.80
20037;BME280;10179;42.640;23.312;2023-12-14T08:44:22;92792.53;;;15.36;42.32
20037;BME280;10179;42.640;23.312;2023-12-14T08:46:47;92801.81;;;15.33;42.10
20037;BME280;10179;42.640;23.312;2023-12-14T08:49:14;92794.09;;;15.37;42.19
20037;BME280;10179;42.640;23.312;2023-12-14T08:51:41;92793.06;;;15.38;42.25
20037;BME280;10179;42.640;23.312;2023-12-14T08:54:07;92722.22;;;14.90;42.20
20037;BME280;10179;42.640;23.312;2023-12-14T08:56:33;92763.50;;;15.25;42.27
20037;BME280;10179;42.640;23.312;2023-12-14T08:58:58;92785.78;;;15.54;42.28
20037;BME280;10179;42.640;23.312;2023-12-14T09:01:25;92768.34;;;15.52;42.01
20037;BME280;10179;42.640;23.312;2023-12-14T09:03:51;92783.19;;;15.48;42.27
20037;BME280;10179;42.640;23.312;2023-12-14T09:06:17;92757.44;;;15.25;42.18
20037;BME280;10179;42.640;23.312;2023-12-14T09:08:43;92792.66;;;15.55;42.21
20037;BME280;10179;42.640;23.312;2023-12-14T09:11:08;92792.09;;;15.58;41.83
20037;BME280;10179;42.640;23.312;2023-12-14T09:13:34;92775.31;;;15.38;41.96
20037;BME280;10179;42.640;23.312;2023-12-14T09:15:59;92728.28;;;15.30;41.96
20037;BME280;10179;42.640;23.312;2023-12-14T09:18:24;92755.53;;;15.65;41.88
20037;BME280;10179;42.640;23.312;2023-12-14T09:20:50;92771.72;;;15.92;41.61
20037;BME280;10179;42.640;23.312;2023-12-14T09:23:16;92775.81;;;16.09;41.47
20037;BME280;10179;42.640;23.312;2023-12-14T09:25:42;92703.03;;;15.77;41.50
20037;BME280;10179;42.640;23.312;2023-12-14T09:28:07;92777.88;;;16.41;41.31
20037;BME280;10179;42.640;23.312;2023-12-14T09:30:33;92686.41;;;16.01;40.85
20037;BME280;10179;42.640;23.312;2023-12-14T09:32:58;92773.13;;;16.62;40.38
20037;BME280;10179;42.640;23.312;2023-12-14T09:35:24;92774.13;;;16.66;40.49
20037;BME280;10179;42.640;23.312;2023-12-14T09:37:49;92778.44;;;16.62;40.20
20037;BME280;10179;42.640;23.312;2023-12-14T09:40:15;92783.56;;;16.77;39.87
20037;BME280;10179;42.640;23.312;2023-12-14T09:42:42;92769.97;;;16.60;39.79
20037;BME280;10179;42.640;23.312;2023-12-14T09:45:08;92785.59;;;16.85;39.53
20037;BME280;10179;42.640;23.312;2023-12-14T09:47:35;92788.31;;;16.80;39.43
20037;BME280;10179;42.640;23.312;2023-12-14T09:50:01;92800.56;;;16.76;39.70
20037;BME280;10179;42.640;23.312;2023-12-14T09:52:28;92808.22;;;16.78;39.72
20037;BME280;10179;42.640;23.312;2023-12-14T09:54:54;92806.09;;;16.80;39.57
20037;BME280;10179;42.640;23.312;2023-12-14T09:57:19;92726.31;;;16.28;39.28
20037;BME280;10179;42.640;23.312;2023-12-14T09:59:54;92817.94;;;16.87;39.56
20037;BME280;10179;42.640;23.312;2023-12-14T10:02:24;92788.88;;;16.77;39.51
20037;BME280;10179;42.640;23.312;2023-12-14T10:04:50;92719.03;;;16.39;39.21
20037;BME280;10179;42.640;23.312;2023-12-14T10:07:15;92795.66;;;17.07;39.13
20037;BME280;10179;42.640;23.312;2023-12-14T10:09:42;92786.41;;;17.05;38.79
20037;BME280;10179;42.640;23.312;2023-12-14T10:12:08;92676.06;;;16.23;39.14
20037;BME280;10179;42.640;23.312;2023-12-14T10:14:35;92790.56;;;17.11;39.18
20037;BME280;10179;42.640;23.312;2023-12-14T10:17:16;92797.88;;;17.19;38.95
20037;BME280;10179;42.640;23.312;2023-12-14T10:19:43;92765.84;;;16.97;39.00
20037;BME280;10179;42.640;23.312;2023-12-14T10:22:08;92794.75;;;17.17;38.67
20037;BME280;10179;42.640;23.312;2023-12-14T10:24:34;92789.44;;;17.17;38.80
20037;BME280;10179;42.640;23.312;2023-12-14T10:27:04;92746.25;;;16.92;38.71
20037;BME280;10179;42.640;23.312;2023-12-14T10:29:32;92792.16;;;17.12;38.92
20037;BME280;10179;42.640;23.312;2023-12-14T10:31:59;92769.19;;;16.83;38.96
20037;BME280;10179;42.640;23.312;2023-12-14T10:34:24;92800.19;;;17.07;39.06
20037;BME280;10179;42.640;23.312;2023-12-14T10:36:51;92804.63;;;17.11;39.52
20037;BME280;10179;42.640;23.312;2023-12-14T10:39:17;92814.50;;;17.06;39.18
20037;BME280;10179;42.640;23.312;2023-12-14T10:41:46;92820.41;;;17.03;39.61
20037;BME280;10179;42.640;23.312;2023-12-14T10:44:14;92814.72;;;16.90;39.41
20037;BME280;10179;42.640;23.312;2023-12-14T10:46:40;92783.28;;;16.55;40.14
20037;BME280;10179;42.640;23.312;2023-12-14T10:49:07;92704.59;;;15.83;40.85
20037;BME280;10179;42.640;23.312;2023-12-14T10:51:33;92841.16;;;16.48;40.99
20037;BME280;10179;42.640;23.312;2023-12-14T10:54:02;92832.97;;;16.44;41.37
20037;BME280;10179;42.640;23.312;2023-12-14T10:56:28;92736.81;;;15.56;42.13
20037;BME280;10179;42.640;23.312;2023-12-14T10:58:57;92598.72;;;14.56;43.16
20037;BME280;10179;42.640;23.312;2023-12-14T11:01:24;92828.09;;;15.98;44.48
20037;BME280;10179;42.640;23.312;2023-12-14T11:03:53;92860.03;;;16.12;45.08
20037;BME280;10179;42.640;23.312;2023-12-14T11:06:35;92764.69;;;15.43;45.82
20037;BME280;10179;42.640;23.312;2023-12-14T11:09:05;92850.16;;;15.88;46.27
20037;BME280;10179;42.640;23.312;2023-12-14T11:14:19;92845.53;;;15.70;47.39
20037;BME280;10179;42.640;23.312;2023-12-14T11:16:47;92795.50;;;15.29;47.96
20037;BME280;10179;42.640;23.312;2023-12-14T11:19:33;92870.94;;;15.71;47.99
20037;BME280;10179;42.640;23.312;2023-12-14T11:24:35;92787.84;;;14.78;47.59
20037;BME280;10179;42.640;23.312;2023-12-14T11:27:07;92881.72;;;15.35;47.49
20037;BME280;10179;42.640;23.312;2023-12-14T11:29:33;92792.13;;;14.64;47.43
20037;BME280;10179;42.640;23.312;2023-12-14T11:31:58;92802.44;;;14.65;47.22
20037;BME280;10179;42.640;23.312;2023-12-14T11:34:24;92871.28;;;14.99;47.20
20037;BME280;10179;42.640;23.312;2023-12-14T11:36:50;92871.34;;;14.89;47.41
20037;BME280;10179;42.640;23.312;2023-12-14T11:39:15;92898.81;;;14.93;47.80
20037;BME280;10179;42.640;23.312;2023-12-14T11:41:40;92826.03;;;14.26;47.66
20037;BME280;10179;42.640;23.312;2023-12-14T11:44:06;92799.13;;;14.08;47.62
20037;BME280;10179;42.640;23.312;2023-12-14T11:46:32;92881.47;;;14.41;47.46
20037;BME280;10179;42.640;23.312;2023-12-14T11:48:58;92899.97;;;14.46;47.42
20037;BME280;10179;42.640;23.312;2023-12-14T11:51:23;92926.91;;;14.38;47.63
20037;BME280;10179;42.640;23.312;2023-12-14T11:53:50;92864.09;;;13.94;47.96
20037;BME280;10179;42.640;23.312;2023-12-14T11:56:20;92907.91;;;14.21;47.83
20037;BME280;10179;42.640;23.312;2023-12-14T11:58:48;92815.00;;;13.57;47.49
20037;BME280;10179;42.640;23.312;2023-12-14T12:01:15;92933.25;;;14.27;47.79
20037;BME280;10179;42.640;23.312;2023-12-14T12:03:41;92779.13;;;13.31;47.79
20037;BME280;10179;42.640;23.312;2023-12-14T12:06:22;92964.44;;;14.30;47.46
20037;BME280;10179;42.640;23.312;2023-12-14T12:08:48;92950.16;;;14.21;47.01
20037;BME280;10179;42.640;23.312;2023-12-14T12:11:24;92950.16;;;14.21;47.12
20037;BME280;10179;42.640;23.312;2023-12-14T12:13:54;92918.47;;;13.90;46.92
20037;BME280;10179;42.640;23.312;2023-12-14T12:16:20;92967.06;;;14.04;46.67
20037;BME280;10179;42.640;23.312;2023-12-14T12:18:46;92922.16;;;13.99;47.08
20037;BME280;10179;42.640;23.312;2023-12-14T12:21:12;92953.31;;;13.97;47.17
20037;BME280;10179;42.640;23.312;2023-12-14T12:23:38;92628.34;;;11.89;46.88
20037;BME280;10179;42.640;23.312;2023-12-14T12:26:03;92828.59;;;13.08;46.81
20037;BME280;10179;42.640;23.312;2023-12-14T12:28:30;92969.16;;;14.02;46.54
20037;BME280;10179;42.640;23.312;2023-12-14T12:30:56;92892.81;;;13.50;46.69
20037;BME280;10179;42.640;23.312;2023-12-14T12:33:21;92913.69;;;13.67;46.92
20037;BME280;10179;42.640;23.312;2023-12-14T12:35:46;92622.75;;;11.76;46.79
20037;BME280;10179;42.640;23.312;2023-12-14T12:38:12;92945.38;;;13.87;46.50
20037;BME280;10179;42.640;23.312;2023-12-14T12:40:37;92933.22;;;13.66;46.38
20037;BME280;10179;42.640;23.312;2023-12-14T12:43:03;92810.06;;;12.73;45.97
20037;BME280;10179;42.640;23.312;2023-12-14T12:45:29;92952.22;;;13.68;46.13
20037;BME280;10179;42.640;23.312;2023-12-14T12:47:54;92717.63;;;12.06;46.21
20037;BME280;10179;42.640;23.312;2023-12-14T12:50:20;92961.97;;;13.62;46.06
20037;BME280;10179;42.640;23.312;2023-12-14T12:52:46;92927.31;;;13.33;46.17